Terminal Aerodrome Forecast
Issued by NWS

Home | Current Version | Previous Version | Text Only | Print | Product List | Glossary On
Versions: 1 2 3 4 5 6 7 8 9 10 11 12 13 14 15 16 17 18
000
FTUS43 KGRB 260520
TAFRHI
TAF
KRHI 260520Z 2606/2706 05011KT P6SM SCT003 OVC007
      TEMPO 2606/2610 4SM -DZ BKN003
     FM261000 06009KT 6SM BR OVC003
      TEMPO 2610/2614 3SM -DZ
     FM261500 07007KT P6SM BKN006 OVC010
     FM261700 06008KT P6SM BKN010 OVC018
     FM262200 07008KT P6SM SCT020
     FM270100 07004KT P6SM SKC=

USA.gov is the U.S. government's official web portal to all federal, state and local government web resources and services.